KHAF

Half Moon Bay Airport

Half Moon Bay, California, USA
METAR KHAF 181440Z AUTO 15003KT M1/4SM FG OVC003 10/10 A3007 RMK AO2
Observed Flight Rules
Aug-18 @ 14:40 UTC (11 minutes ago) Instrument Flight Rules
Wind Visibility Clouds Conditions
150° at 3 knots 1/4 miles
  • Overcast at 300' AGL
  • Fog
Temperatures Readings
Current 10°C / 50°F
Dewpoint 10°C / 50°F
Humidity 100%
Altimeter 30.07" Hg
Pressure 1018 hPa
Elevation 21
METAR KHAF 181440Z AUTO 15003KT M1/4SM FG OVC003 10/10 A3007 RMK AO2
Observed Flight Rules
Aug-18 @ 14:40 UTC
(11 minutes ago)
LIFR
Wind Visibility
150° at 3 knots 1/4 miles
Clouds
  • Overcast at 300' AGL
Conditions
  • Fog
Temperature Dewpoint
10°C / 50°F 10°C / 50°F
Humidity Altimeter Pressure
100% 30.07" Hg 1018 hPa